Time;durP1;ratioP1;P1;durP2;ratioP2;P2;SDS_P1;SDS_P2;PMS_P1;PMS_P2;Temp;Humidity;BMP_temperature;BMP_pressure;BME280_temperature;BME280_humidity;BME280_pressure;Samples;Min_cycle;Max_cycle;Signal;HPM_P1;HPM_P2
2023/02/06 00:00:40;;;;;;;6.10;1.40;;;;;;;5.46;94.19;104436.94;5041860;28;20104;-76
2023/02/06 00:03:06;;;;;;;5.15;1.15;;;;;;;5.47;94.27;104432.59;5033887;28;20037;-76
2023/02/06 00:05:32;;;;;;;4.80;1.25;;;;;;;5.48;94.30;104435.25;5036073;28;20052;-76
2023/02/06 00:07:57;;;;;;;4.45;1.27;;;;;;;5.49;94.27;104434.41;5036962;28;20064;-76
2023/02/06 00:10:23;;;;;;;7.75;1.83;;;;;;;5.48;94.02;104427.47;5038061;28;20037;-76
2023/02/06 00:12:48;;;;;;;25.45;2.97;;;;;;;5.46;93.67;104425.66;5036892;28;20051;-76
2023/02/06 00:15:14;;;;;;;13.98;2.38;;;;;;;5.44;94.03;104423.00;5033635;28;20234;-76
2023/02/06 00:17:39;;;;;;;8.55;1.67;;;;;;;5.45;94.05;104414.34;5034786;28;20135;-76
2023/02/06 00:20:07;;;;;;;9.48;2.20;;;;;;;5.45;94.23;104414.34;5036659;28;20048;-76
2023/02/06 00:22:32;;;;;;;12.35;2.13;;;;;;;5.45;94.10;104419.53;5038365;28;20071;-76
2023/02/06 00:24:58;;;;;;;10.75;2.22;;;;;;;5.46;94.22;104423.06;5036491;28;20033;-76
2023/02/06 00:27:24;;;;;;;9.43;1.65;;;;;;;5.46;94.29;104426.53;5038449;28;20316;-76
2023/02/06 00:29:49;;;;;;;6.60;1.88;;;;;;;5.46;94.31;104425.66;5040367;28;20037;-76
2023/02/06 00:32:15;;;;;;;13.63;2.47;;;;;;;5.44;94.57;104420.38;5038664;28;20041;-76
2023/02/06 00:34:40;;;;;;;7.10;1.40;;;;;;;5.45;94.27;104414.34;5038602;28;20104;-76
2023/02/06 00:37:06;;;;;;;5.38;1.45;;;;;;;5.47;94.45;104420.47;5038909;28;20305;-76
2023/02/06 00:39:31;;;;;;;6.40;1.50;;;;;;;5.47;94.23;104415.28;5019023;28;20234;-76
2023/02/06 00:41:56;;;;;;;6.82;1.55;;;;;;;5.48;94.63;104413.59;5039300;28;20112;-76
2023/02/06 00:44:22;;;;;;;12.57;2.58;;;;;;;5.46;94.20;104404.84;5038714;28;20045;-76
2023/02/06 00:46:48;;;;;;;9.70;2.28;;;;;;;5.45;94.13;104408.28;5023244;28;20053;-76
2023/02/06 00:49:13;;;;;;;9.18;2.35;;;;;;;5.44;94.11;104407.38;5039099;28;20056;-76
2023/02/06 00:51:39;;;;;;;8.52;2.00;;;;;;;5.44;94.26;104409.06;5042672;28;20164;-76
2023/02/06 00:54:05;;;;;;;11.95;2.38;;;;;;;5.43;94.13;104413.41;5038569;28;20244;-76
2023/02/06 00:56:31;;;;;;;6.63;1.80;;;;;;;5.39;93.83;104407.19;5038113;28;20329;-76
2023/02/06 00:58:57;;;;;;;14.00;2.17;;;;;;;5.39;94.10;104409.81;5037941;28;20033;-76
2023/02/06 01:01:24;;;;;;;6.72;1.85;;;;;;;5.42;94.27;104416.84;5037842;28;20048;-76
2023/02/06 01:03:49;;;;;;;10.38;1.55;;;;;;;5.43;94.56;104421.19;5037996;28;20107;-76
2023/02/06 01:06:15;;;;;;;5.72;1.45;;;;;;;5.45;94.65;104414.34;5019973;28;20045;-76
2023/02/06 01:08:40;;;;;;;6.28;1.42;;;;;;;5.46;94.84;104408.31;5038639;28;20275;-76
2023/02/06 01:11:17;;;;;;;4.57;1.05;;;;;;;5.49;95.02;104408.41;5037898;28;20340;-76
2023/02/06 01:13:43;;;;;;;5.60;1.00;;;;;;;5.51;95.21;104411.09;5020635;28;20037;-76
2023/02/06 01:16:11;;;;;;;3.53;1.38;;;;;;;5.52;95.09;104405.94;5037933;28;20179;-76
2023/02/06 01:18:37;;;;;;;3.93;1.27;;;;;;;5.52;95.42;104411.16;5037306;28;20037;-76
2023/02/06 01:21:13;;;;;;;3.58;1.05;;;;;;;5.52;95.29;104408.53;5039038;28;20292;-76
2023/02/06 01:23:39;;;;;;;3.40;1.20;;;;;;;5.53;95.35;104407.72;5035008;28;20072;-76
2023/02/06 01:26:11;;;;;;;3.10;0.90;;;;;;;5.55;95.63;104416.47;5039152;28;20041;-76
2023/02/06 01:28:39;;;;;;;3.65;0.88;;;;;;;5.56;95.65;104415.63;5034545;28;20041;-76
2023/02/06 01:31:11;;;;;;;3.10;1.25;;;;;;;5.56;95.62;104428.63;5036541;28;20040;-76
2023/02/06 01:33:37;;;;;;;2.17;1.00;;;;;;;5.56;95.73;104420.81;5034095;28;20112;-76
2023/02/06 01:36:03;;;;;;;3.67;0.95;;;;;;;5.56;95.83;104415.63;5038088;28;20230;-76
2023/02/06 01:38:28;;;;;;;4.45;1.00;;;;;;;5.56;95.85;104405.22;5036803;28;20056;-76
2023/02/06 01:40:58;;;;;;;4.68;1.10;;;;;;;5.56;96.09;104405.22;5038138;28;20048;-76
2023/02/06 01:43:27;;;;;;;7.70;1.38;;;;;;;5.56;95.86;104400.03;5039286;28;20040;-76
2023/02/06 01:45:53;;;;;;;8.88;1.73;;;;;;;5.55;95.91;104410.41;5037353;28;20068;-76
2023/02/06 01:48:25;;;;;;;4.82;1.10;;;;;;;5.55;95.94;104413.88;5038352;28;20029;-76
2023/02/06 01:50:53;;;;;;;6.70;1.70;;;;;;;5.55;95.93;104406.06;5037231;28;20037;-76
2023/02/06 01:53:20;;;;;;;3.88;1.17;;;;;;;5.55;96.13;104405.19;5019915;28;20033;-76
2023/02/06 01:55:47;;;;;;;2.08;0.80;;;;;;;5.56;96.22;104405.22;5019716;28;20295;-76
2023/02/06 01:58:18;;;;;;;7.63;1.10;;;;;;;5.56;96.34;104402.63;5020184;28;20040;-76
2023/02/06 02:00:44;;;;;;;4.25;1.10;;;;;;;5.58;96.33;104400.09;5043067;28;20252;-76
2023/02/06 02:03:10;;;;;;;3.80;1.10;;;;;;;5.58;96.36;104402.69;5029503;28;20041;-76
2023/02/06 02:05:39;;;;;;;2.72;0.95;;;;;;;5.57;96.44;104399.22;5036780;28;20044;-76
2023/02/06 02:08:16;;;;;;;6.05;1.20;;;;;;;5.57;96.51;104407.00;5037256;28;20060;-76
2023/02/06 02:10:42;;;;;;;3.47;1.13;;;;;;;5.56;96.66;104392.22;5037140;28;20049;-76
2023/02/06 02:13:08;;;;;;;4.60;1.42;;;;;;;5.57;96.55;104401.81;5036971;28;20043;-76
2023/02/06 02:16:06;;;;;;;2.10;0.80;;;;;;;5.56;96.59;104392.22;5039319;28;20303;-76
2023/02/06 02:19:12;;;;;;;2.60;0.82;;;;;;;5.57;96.74;104387.94;5029943;28;20108;-76
2023/02/06 02:22:13;;;;;;;3.40;0.82;;;;;;;5.56;96.94;104375.75;5036428;28;20364;-76
2023/02/06 02:25:00;;;;;;;3.50;1.10;;;;;;;5.54;96.74;104380.00;5028561;28;20041;-76
2023/02/06 02:27:38;;;;;;;4.75;1.02;;;;;;;5.54;96.79;104380.00;5043410;28;20285;-76
2023/02/06 02:30:22;;;;;;;3.13;1.27;;;;;;;5.51;96.78;104374.69;5036524;28;20041;-76
2023/02/06 02:32:54;;;;;;;4.03;1.17;;;;;;;5.52;96.86;104363.47;5028756;28;20025;-76
2023/02/06 02:35:40;;;;;;;4.95;1.48;;;;;;;5.51;96.90;104362.59;5036291;28;20044;-76
2023/02/06 02:38:46;;;;;;;2.67;0.98;;;;;;;5.51;97.00;104369.50;5030472;28;20041;-76
2023/02/06 02:41:17;;;;;;;4.03;1.20;;;;;;;5.51;97.23;104365.19;4980544;28;20237;-76
2023/02/06 02:43:45;;;;;;;3.10;1.23;;;;;;;5.51;97.17;104356.47;5036432;28;20378;-76
2023/02/06 02:46:30;;;;;;;3.40;1.13;;;;;;;5.50;97.18;104360.81;5036506;28;20192;-76
2023/02/06 02:49:01;;;;;;;6.72;1.10;;;;;;;5.51;97.46;104361.69;5036484;28;20247;-76
2023/02/06 02:51:27;;;;;;;3.72;0.82;;;;;;;5.50;97.29;104366.00;5036405;28;20116;-76
2023/02/06 02:53:56;;;;;;;2.90;1.00;;;;;;;5.50;97.35;104367.72;5036688;28;20045;-76
2023/02/06 02:56:24;;;;;;;3.55;0.80;;;;;;;5.50;97.46;104368.59;5038693;28;20112;-76
2023/02/06 02:58:57;;;;;;;1.48;0.63;;;;;;;5.49;97.41;104365.94;5038798;28;20037;-76
2023/02/06 03:01:32;;;;;;;3.95;0.80;;;;;;;5.47;97.53;104360.69;5035475;28;20037;-76
2023/02/06 03:04:05;;;;;;;2.72;1.17;;;;;;;5.46;97.48;104364.13;5040230;28;20079;-76
2023/02/06 03:06:41;;;;;;;5.45;1.38;;;;;;;5.43;97.48;104356.22;5028636;28;20041;-76
2023/02/06 03:09:32;;;;;;;4.05;1.10;;;;;;;5.42;97.53;104358.75;5036401;28;20096;-76
2023/02/06 03:12:05;;;;;;;5.43;1.13;;;;;;;5.39;97.53;104357.81;5035999;28;20237;-76
2023/02/06 03:14:42;;;;;;;3.60;0.80;;;;;;;5.37;97.37;104361.19;5023736;28;20067;-76
2023/02/06 03:17:18;;;;;;;3.38;1.20;;;;;;;5.36;97.36;104364.59;5036041;28;20064;-76
2023/02/06 03:19:50;;;;;;;2.67;0.85;;;;;;;5.34;97.47;104364.53;5035907;28;20106;-76
2023/02/06 03:22:16;;;;;;;6.93;1.48;;;;;;;5.32;97.40;104368.81;5035731;28;20038;-76
2023/02/06 03:24:42;;;;;;;7.78;1.70;;;;;;;5.30;97.42;104365.25;5038384;28;20099;-76
2023/02/06 03:27:12;;;;;;;3.28;1.20;;;;;;;5.28;97.18;104363.44;5035801;28;20322;-76
2023/02/06 03:29:39;;;;;;;2.25;0.90;;;;;;;5.26;97.36;104366.00;5041561;28;20603;-76
2023/02/06 03:32:04;;;;;;;2.47;0.90;;;;;;;5.23;97.09;104372.78;5035877;28;20029;-76
2023/02/06 03:35:01;;;;;;;3.70;1.20;;;;;;;5.22;97.08;104374.50;5035744;28;20453;-76
2023/02/06 03:37:28;;;;;;;1.70;0.93;;;;;;;5.21;97.01;104377.03;4991365;28;20034;-76
2023/02/06 03:39:56;;;;;;;2.15;1.15;;;;;;;5.19;97.03;104374.38;5037183;28;20341;-76
2023/02/06 03:42:22;;;;;;;3.83;0.95;;;;;;;5.18;96.90;104377.78;5035355;28;20025;-76
2023/02/06 03:44:55;;;;;;;3.10;0.93;;;;;;;5.17;97.01;104373.44;5035986;28;20254;-76
2023/02/06 03:47:23;;;;;;;3.65;1.02;;;;;;;5.15;97.01;104383.75;5035398;28;20067;-76
2023/02/06 03:49:51;;;;;;;3.65;0.98;;;;;;;5.14;97.06;104381.97;5039776;28;20116;-76
2023/02/06 03:52:22;;;;;;;4.65;0.90;;;;;;;5.14;97.15;104381.97;5034882;28;20041;-76
2023/02/06 03:54:52;;;;;;;2.47;0.82;;;;;;;5.14;97.13;104381.09;5037985;28;20017;-76
2023/02/06 03:57:20;;;;;;;2.75;1.08;;;;;;;5.13;97.25;104377.63;5044209;28;20371;-76
2023/02/06 03:59:46;;;;;;;4.15;1.30;;;;;;;5.12;97.10;104369.75;5039804;28;20033;-76
2023/02/06 04:02:13;;;;;;;3.50;1.00;;;;;;;5.11;97.13;104370.56;5029941;28;20241;-75
2023/02/06 04:04:41;;;;;;;4.50;0.98;;;;;;;5.09;97.24;104375.72;5038379;28;20049;-75
2023/02/06 04:07:18;;;;;;;2.97;0.90;;;;;;;5.07;97.04;104369.56;5039376;28;20041;-75
2023/02/06 04:09:44;;;;;;;4.60;1.17;;;;;;;5.05;97.04;104373.81;5041481;28;20025;-75
2023/02/06 04:12:09;;;;;;;4.15;1.20;;;;;;;5.03;97.12;104361.63;5038893;28;20037;-75
2023/02/06 04:14:35;;;;;;;1.30;1.00;;;;;;;5.01;97.03;104366.75;5043997;28;20036;-75
2023/02/06 04:17:02;;;;;;;2.78;0.90;;;;;;;5.02;97.09;104367.63;5039025;28;20291;-75
2023/02/06 04:19:27;;;;;;;2.95;1.05;;;;;;;4.99;97.13;104363.22;5027147;28;20036;-75
2023/02/06 04:21:53;;;;;;;4.78;1.20;;;;;;;4.98;97.04;104364.94;5006137;28;20079;-75
2023/02/06 04:24:18;;;;;;;4.05;1.05;;;;;;;4.94;96.69;104352.63;5033390;28;20048;-75
2023/02/06 04:26:44;;;;;;;4.93;1.00;;;;;;;4.94;97.04;104359.53;5021334;28;20025;-75
2023/02/06 04:29:11;;;;;;;2.88;1.30;;;;;;;4.93;96.92;104369.06;5039882;28;20293;-75
2023/02/06 04:31:37;;;;;;;8.52;1.95;;;;;;;4.92;96.94;104369.88;5042444;28;20264;-75
2023/02/06 04:34:02;;;;;;;8.57;2.10;;;;;;;4.90;97.01;104376.72;5026935;28;20037;-75
2023/02/06 04:36:28;;;;;;;2.88;1.25;;;;;;;4.88;96.86;104372.31;5038374;28;20033;-75
2023/02/06 04:38:53;;;;;;;2.92;1.48;;;;;;;4.86;96.84;104376.50;5021403;28;20044;-75
2023/02/06 04:41:19;;;;;;;4.30;1.40;;;;;;;4.83;96.47;104382.50;5038161;28;20033;-75
2023/02/06 04:43:44;;;;;;;3.10;1.20;;;;;;;4.80;96.56;104393.66;5043956;28;20108;-75
2023/02/06 04:46:09;;;;;;;3.40;1.20;;;;;;;4.79;96.50;104391.00;5044210;28;20052;-75
2023/02/06 04:48:36;;;;;;;5.05;1.83;;;;;;;4.77;96.43;104390.94;5046687;28;20036;-75
2023/02/06 04:51:02;;;;;;;3.90;1.27;;;;;;;4.73;96.26;104386.44;5047862;28;20052;-75
2023/02/06 04:53:27;;;;;;;2.90;1.10;;;;;;;4.73;96.34;104388.13;5038192;28;20213;-75
2023/02/06 04:55:55;;;;;;;2.53;1.05;;;;;;;4.71;96.26;104374.19;5026505;28;20037;-75
2023/02/06 04:58:20;;;;;;;4.40;1.20;;;;;;;4.71;96.58;104375.09;5024902;28;20040;-75
2023/02/06 05:00:45;;;;;;;4.03;1.20;;;;;;;4.69;96.30;104381.03;5021384;28;20104;-75
2023/02/06 05:03:11;;;;;;;2.22;1.17;;;;;;;4.68;96.07;104381.88;5039222;28;20261;-75
2023/02/06 05:05:36;;;;;;;4.07;2.03;;;;;;;4.66;96.24;104378.31;5042900;28;20037;-75
2023/02/06 05:08:02;;;;;;;6.68;2.05;;;;;;;4.64;96.25;104375.69;5038066;28;20038;-75
2023/02/06 05:10:27;;;;;;;5.97;1.60;;;;;;;4.62;96.03;104369.53;5019833;28;20048;-75
2023/02/06 05:12:54;;;;;;;3.72;1.33;;;;;;;4.61;96.16;104368.63;5038073;28;20280;-75
2023/02/06 05:15:20;;;;;;;2.80;1.33;;;;;;;4.57;95.99;104363.28;5042176;28;20081;-75
2023/02/06 05:17:45;;;;;;;7.78;1.88;;;;;;;4.54;95.87;104358.81;5039888;28;20033;-75
2023/02/06 05:20:11;;;;;;;4.90;1.30;;;;;;;4.53;95.74;104364.84;5042304;28;20036;-75
2023/02/06 05:22:36;;;;;;;3.58;1.02;;;;;;;4.52;95.83;104367.38;5042914;28;20024;-75
2023/02/06 05:25:02;;;;;;;5.45;1.58;;;;;;;4.51;95.90;104360.41;5038758;28;20041;-75
2023/02/06 05:27:27;;;;;;;4.68;1.17;;;;;;;4.49;96.03;104355.16;5037271;28;20033;-75
2023/02/06 05:29:52;;;;;;;2.17;0.95;;;;;;;4.47;96.01;104354.19;5038350;28;20112;-75
2023/02/06 05:32:18;;;;;;;6.43;1.48;;;;;;;4.46;96.11;104347.25;5036734;28;20060;-75
2023/02/06 05:34:44;;;;;;;4.45;1.23;;;;;;;4.46;96.23;104346.34;5037614;28;20045;-75
2023/02/06 05:37:10;;;;;;;4.00;1.40;;;;;;;4.44;96.15;104348.91;5044676;28;20048;-75
2023/02/06 05:39:35;;;;;;;6.32;1.38;;;;;;;4.45;96.13;104358.44;5037126;28;20368;-75
2023/02/06 05:42:01;;;;;;;3.03;1.13;;;;;;;4.43;96.29;104354.91;5037656;28;20049;-75
2023/02/06 05:44:26;;;;;;;9.55;1.92;;;;;;;4.43;96.36;104360.09;5036882;28;20391;-75
2023/02/06 05:46:52;;;;;;;8.02;1.60;;;;;;;4.44;96.38;104367.06;5043978;28;20049;-75
2023/02/06 05:49:17;;;;;;;5.20;1.10;;;;;;;4.43;96.70;104368.75;5041537;28;20320;-75
2023/02/06 05:51:42;;;;;;;2.22;1.02;;;;;;;4.46;96.72;104374.91;5043824;28;20041;-75
2023/02/06 05:54:08;;;;;;;5.15;0.90;;;;;;;4.45;96.83;104357.56;5040139;28;20108;-75
2023/02/06 05:56:33;;;;;;;5.13;1.33;;;;;;;4.46;96.83;104361.91;5039157;28;20561;-75
2023/02/06 05:58:59;;;;;;;5.05;1.02;;;;;;;4.45;96.90;104353.25;5002030;28;20156;-75
2023/02/06 06:01:24;;;;;;;3.17;1.10;;;;;;;4.46;96.92;104364.53;5041076;28;20027;-75
2023/02/06 06:03:50;;;;;;;4.60;1.00;;;;;;;4.45;97.12;104367.94;5002913;28;20217;-75
2023/02/06 06:06:15;;;;;;;4.00;0.98;;;;;;;4.45;97.10;104376.63;5042364;28;20300;-75
2023/02/06 06:08:41;;;;;;;4.03;1.38;;;;;;;4.46;97.20;104369.72;5037068;28;20041;-75
2023/02/06 06:11:06;;;;;;;3.47;0.93;;;;;;;4.45;97.26;104363.63;5043340;28;20438;-75
2023/02/06 06:13:32;;;;;;;2.10;0.88;;;;;;;4.45;97.24;104370.56;5036562;28;20367;-75
2023/02/06 06:15:57;;;;;;;4.00;1.13;;;;;;;4.46;97.41;104361.91;5036721;28;20055;-75
2023/02/06 06:18:23;;;;;;;3.83;0.77;;;;;;;4.46;97.20;104361.91;5037858;28;20507;-75
2023/02/06 06:20:48;;;;;;;4.15;0.82;;;;;;;4.46;97.49;104362.84;5043835;28;20112;-75
2023/02/06 06:23:14;;;;;;;5.72;1.05;;;;;;;4.46;97.68;104357.63;5036978;28;20064;-75
2023/02/06 06:25:39;;;;;;;6.20;1.45;;;;;;;4.49;97.76;104356.88;5036771;28;20348;-75
2023/02/06 06:28:04;;;;;;;5.75;1.10;;;;;;;4.50;97.94;104359.53;5038711;28;20040;-75
2023/02/06 06:30:30;;;;;;;3.13;1.20;;;;;;;4.52;97.89;104354.41;5043181;28;20037;-75
2023/02/06 06:32:55;;;;;;;1.77;0.95;;;;;;;4.52;98.01;104360.47;5036879;28;20076;-75
2023/02/06 06:35:21;;;;;;;5.15;1.33;;;;;;;4.53;97.94;104353.56;5036105;28;20049;-75
2023/02/06 06:37:46;;;;;;;5.72;1.55;;;;;;;4.52;98.06;104360.47;5036643;28;20090;-75
2023/02/06 06:40:12;;;;;;;3.78;1.00;;;;;;;4.54;98.28;104363.13;5039567;28;20135;-75
2023/02/06 06:42:37;;;;;;;3.83;0.90;;;;;;;4.55;98.36;104371.00;5035570;28;20424;-75
2023/02/06 06:45:03;;;;;;;2.45;0.90;;;;;;;4.56;98.39;104364.97;5022405;28;20116;-75
2023/02/06 06:47:29;;;;;;;4.78;0.90;;;;;;;4.58;98.54;104363.34;5035745;28;20033;-75
2023/02/06 06:49:54;;;;;;;7.03;1.80;;;;;;;4.59;98.24;104374.59;5022144;28;20376;-75
2023/02/06 06:52:19;;;;;;;6.43;1.00;;;;;;;4.59;98.44;104366.81;5035769;28;20048;-75
2023/02/06 06:54:45;;;;;;;3.53;0.93;;;;;;;4.59;98.65;104369.41;5045399;28;20029;-75
2023/02/06 06:57:12;;;;;;;2.78;1.00;;;;;;;4.59;98.87;104377.19;5043266;28;20041;-75
2023/02/06 06:59:37;;;;;;;2.35;0.88;;;;;;;4.60;98.79;104371.16;5036048;28;20347;-75
2023/02/06 07:02:03;;;;;;;4.65;1.23;;;;;;;4.60;99.03;104368.56;5043003;28;20029;-75
2023/02/06 07:04:29;;;;;;;4.20;1.15;;;;;;;4.59;98.96;104366.81;5042475;28;20064;-75
2023/02/06 07:06:55;;;;;;;4.22;1.23;;;;;;;4.61;99.40;104370.34;5036303;28;20232;-75
2023/02/06 07:09:20;;;;;;;3.00;1.17;;;;;;;4.60;99.07;104371.16;5024851;28;20116;-75
2023/02/06 07:11:46;;;;;;;3.85;1.20;;;;;;;4.60;99.27;104358.19;5019165;28;20229;-75
2023/02/06 07:14:11;;;;;;;3.90;1.25;;;;;;;4.58;99.25;104355.56;5043841;28;20040;-75
2023/02/06 07:16:37;;;;;;;3.88;1.10;;;;;;;4.57;99.19;104351.16;5042663;28;20041;-75
2023/02/06 07:19:03;;;;;;;2.45;0.90;;;;;;;4.58;99.14;104358.16;5033773;28;20038;-75
2023/02/06 07:21:28;;;;;;;3.63;1.20;;;;;;;4.56;99.30;104349.38;5035127;28;20080;-75
2023/02/06 07:23:54;;;;;;;2.25;1.20;;;;;;;4.56;99.24;104345.91;5036195;28;20033;-75
2023/02/06 07:26:19;;;;;;;4.88;1.20;;;;;;;4.53;99.30;104349.28;5035574;28;20095;-75
2023/02/06 07:28:45;;;;;;;3.67;0.95;;;;;;;4.52;99.38;104347.50;5036964;28;20037;-75
2023/02/06 07:31:10;;;;;;;3.05;1.02;;;;;;;4.52;99.41;104346.63;5050434;28;20213;-75
2023/02/06 07:33:35;;;;;;;2.33;1.25;;;;;;;4.51;99.43;104353.53;5040862;28;20040;-75
2023/02/06 07:36:01;;;;;;;5.75;1.30;;;;;;;4.49;99.49;104352.56;5049106;28;20064;-75
2023/02/06 07:38:26;;;;;;;1.75;1.10;;;;;;;4.50;99.45;104356.06;5042899;28;20033;-75
2023/02/06 07:40:52;;;;;;;2.22;1.05;;;;;;;4.49;99.52;104351.69;5044934;28;20048;-75
2023/02/06 07:43:17;;;;;;;3.88;0.85;;;;;;;4.49;99.49;104354.28;5038728;28;20079;-75
2023/02/06 07:45:43;;;;;;;2.17;1.10;;;;;;;4.47;99.62;104354.19;5040345;28;20083;-75
2023/02/06 07:48:08;;;;;;;2.65;0.80;;;;;;;4.46;99.49;104344.66;5038978;28;20037;-75
2023/02/06 07:50:34;;;;;;;2.17;0.90;;;;;;;4.45;99.53;104348.06;5039492;28;20044;-75
2023/02/06 07:53:01;;;;;;;3.40;0.85;;;;;;;4.45;99.72;104345.47;5039256;28;20064;-75
2023/02/06 07:55:27;;;;;;;3.50;1.10;;;;;;;4.45;99.56;104345.47;5039093;28;20500;-73
2023/02/06 07:57:53;;;;;;;1.38;0.88;;;;;;;4.44;99.52;104348.91;5039655;28;20049;-73
2023/02/06 08:00:19;;;;;;;3.88;1.13;;;;;;;4.45;99.68;104352.38;5038454;28;20591;-72
2023/02/06 08:02:44;;;;;;;2.33;0.90;;;;;;;4.45;99.65;104342.00;5042399;28;20041;-72
2023/02/06 08:05:10;;;;;;;2.85;0.93;;;;;;;4.43;99.64;104331.56;5041191;28;20084;-73
2023/02/06 08:07:36;;;;;;;1.75;1.17;;;;;;;4.43;99.67;104326.34;5034289;28;20079;-73
2023/02/06 08:10:02;;;;;;;6.03;1.40;;;;;;;4.42;99.65;104316.78;5043332;28;20045;-72
2023/02/06 08:12:29;;;;;;;2.50;0.90;;;;;;;4.41;99.67;104315.91;5042064;28;20351;-72
2023/02/06 08:14:55;;;;;;;2.10;1.13;;;;;;;4.41;99.64;104313.31;5034305;28;20045;-73
2023/02/06 08:17:20;;;;;;;3.53;1.15;;;;;;;4.41;99.60;104315.91;5036891;28;20099;-73
2023/02/06 08:19:46;;;;;;;2.45;1.08;;;;;;;4.42;99.59;104319.38;5038407;28;20084;-73
2023/02/06 08:22:11;;;;;;;2.38;0.80;;;;;;;4.42;99.76;104307.31;5043365;28;20055;-73
2023/02/06 08:24:36;;;;;;;3.45;1.17;;;;;;;4.41;99.77;104300.34;5038573;28;20048;-72
2023/02/06 08:27:02;;;;;;;5.35;1.17;;;;;;;4.42;99.73;104296.94;5037873;28;20029;-73
2023/02/06 08:29:27;;;;;;;1.55;0.98;;;;;;;4.42;99.79;104290.84;5046184;28;20090;-75
2023/02/06 08:31:53;;;;;;;2.45;1.13;;;;;;;4.42;99.85;104280.44;5038191;28;20033;-75
2023/02/06 08:34:18;;;;;;;4.25;1.27;;;;;;;4.41;99.78;104282.16;5038027;28;20280;-75
2023/02/06 08:36:43;;;;;;;4.15;1.80;;;;;;;4.41;99.84;104278.69;5038169;28;20049;-76
2023/02/06 08:39:13;;;;;;;6.75;2.00;;;;;;;4.39;99.82;104278.63;5045379;28;20048;-75
2023/02/06 08:41:40;;;;;;;7.32;2.00;;;;;;;4.40;100.00;104271.72;5037345;28;20114;-75
2023/02/06 08:44:13;;;;;;;3.85;1.63;;;;;;;4.40;100.00;104263.94;5044663;28;20039;-75
2023/02/06 08:46:39;;;;;;;3.80;1.60;;;;;;;4.41;100.00;104264.00;5037076;28;20037;-75
2023/02/06 08:49:07;;;;;;;5.00;1.60;;;;;;;4.45;100.00;104274.50;5021190;28;20388;-75
2023/02/06 08:51:34;;;;;;;2.90;1.08;;;;;;;4.46;100.00;104253.81;5036430;28;20351;-75
2023/02/06 08:54:04;;;;;;;4.85;1.40;;;;;;;4.46;100.00;104248.63;5017324;28;20037;-73
2023/02/06 08:56:30;;;;;;;4.47;1.45;;;;;;;4.49;100.00;104246.13;5034035;28;20376;-73
2023/02/06 08:58:58;;;;;;;5.18;1.67;;;;;;;4.52;100.00;104259.25;5037036;28;20045;-73
2023/02/06 09:01:24;;;;;;;5.47;1.67;;;;;;;4.54;100.00;104259.31;5034814;28;20075;-73
2023/02/06 09:03:53;;;;;;;3.22;1.23;;;;;;;4.54;100.00;104251.50;5035310;28;20057;-73
2023/02/06 09:06:18;;;;;;;;;;;;;;;4.54;100.00;104251.50;5036389;28;20049;-73
2023/02/06 09:08:43;;;;;;;4.43;1.58;;;;;;;4.54;100.00;104242.00;5019842;28;19959;-74
2023/02/06 09:11:17;;;;;;;3.47;1.30;;;;;;;4.56;100.00;104239.47;5036642;28;20333;-73
2023/02/06 09:13:46;;;;;;;4.20;1.33;;;;;;;4.55;100.00;104240.31;5035848;28;20029;-73
2023/02/06 09:16:12;;;;;;;4.22;1.08;;;;;;;4.56;100.00;104247.25;5025357;28;20037;-73
2023/02/06 09:18:38;;;;;;;3.88;1.35;;;;;;;4.56;100.00;104244.66;5034865;28;20078;-73
2023/02/06 09:21:12;;;;;;;9.25;2.47;;;;;;;4.56;100.00;104247.25;5026261;28;20201;-73
2023/02/06 09:23:38;;;;;;;2.63;1.77;;;;;;;4.57;100.00;104242.13;5042526;28;20048;-73
2023/02/06 09:26:04;;;;;;;3.75;1.60;;;;;;;4.58;100.00;104249.13;5034386;28;20087;-73
2023/02/06 09:28:31;;;;;;;13.57;3.38;;;;;;;4.60;100.00;104252.66;5018190;28;20096;-73
2023/02/06 09:30:56;;;;;;;13.68;3.38;;;;;;;4.61;100.00;104245.75;5036449;28;20040;-73
2023/02/06 09:33:22;;;;;;;8.45;2.13;;;;;;;4.60;100.00;104246.53;5038058;28;20375;-73
2023/02/06 09:35:47;;;;;;;4.97;1.95;;;;;;;4.63;100.00;104246.69;5040016;28;20352;-73
2023/02/06 09:38:12;;;;;;;7.32;2.10;;;;;;;4.65;100.00;104245.03;5041599;28;20033;-73
2023/02/06 09:40:38;;;;;;;4.25;1.58;;;;;;;4.68;100.00;104239.09;5035646;28;20021;-73
2023/02/06 09:43:04;;;;;;;5.07;1.50;;;;;;;4.69;100.00;104238.22;5037649;28;20099;-73
2023/02/06 09:45:31;;;;;;;6.97;1.60;;;;;;;4.71;100.00;104233.97;5033422;28;20045;-73
2023/02/06 09:48:04;;;;;;;4.53;1.40;;;;;;;4.73;100.00;104228.03;5037271;28;20352;-73
2023/02/06 09:50:55;;;;;;;6.72;1.85;;;;;;;4.75;100.00;104228.09;5034168;28;20423;-73
2023/02/06 09:53:38;;;;;;;8.18;2.13;;;;;;;4.77;100.00;104231.63;5030935;28;20045;-73
2023/02/06 09:56:25;;;;;;;11.65;2.42;;;;;;;4.82;100.00;104243.09;5034778;28;20232;-73
2023/02/06 09:59:07;;;;;;;4.75;1.90;;;;;;;4.85;100.00;104244.91;5043901;28;20236;-73
2023/02/06 10:01:46;;;;;;;26.08;3.75;;;;;;;4.86;100.00;104247.56;5035529;28;20106;-72
2023/02/06 10:04:33;;;;;;;18.10;3.97;;;;;;;4.88;100.00;104245.03;5045241;28;20096;-73
2023/02/06 10:07:25;;;;;;;26.48;4.03;;;;;;;4.90;100.00;104253.75;5046277;28;20041;-73
2023/02/06 10:10:13;;;;;;;24.95;4.43;;;;;;;4.93;100.00;104264.25;5037659;28;20026;-73
2023/02/06 10:12:52;;;;;;;16.98;3.35;;;;;;;4.94;100.00;104264.31;5036842;28;20155;-73
2023/02/06 10:15:24;;;;;;;;;;;;;;;4.97;100.00;104261.84;5039146;28;20020;-73
2023/02/06 10:17:55;;;;;;;10.07;2.95;;;;;;;5.00;100.00;104264.56;5035803;28;19927;-73
2023/02/06 10:20:25;;;;;;;9.93;2.35;;;;;;;5.04;100.00;104262.06;5040951;28;20095;-73
2023/02/06 10:23:17;;;;;;;19.05;4.63;;;;;;;5.07;100.00;104280.34;5049597;28;20029;-73
2023/02/06 10:25:48;;;;;;;29.63;4.07;;;;;;;5.07;100.00;104281.25;5043423;28;20064;-73
2023/02/06 10:28:25;;;;;;;29.00;3.70;;;;;;;5.11;100.00;104284.84;5045390;28;20243;-73
2023/02/06 10:31:25;;;;;;;25.00;3.88;;;;;;;5.13;100.00;104281.47;5037582;28;20167;-73
2023/02/06 10:34:12;;;;;;;17.17;3.08;;;;;;;5.18;100.00;104279.03;5044724;28;20044;-73
2023/02/06 10:36:49;;;;;;;40.08;4.55;;;;;;;5.21;100.00;104283.47;5042101;28;20387;-73
2023/02/06 10:39:32;;;;;;;39.83;4.07;;;;;;;5.24;100.00;104279.28;5043507;28;20236;-73
2023/02/06 10:42:25;;;;;;;19.60;3.88;;;;;;;5.27;100.00;104268.97;5046004;28;20032;-73
2023/02/06 10:45:08;;;;;;;18.10;2.85;;;;;;;5.31;100.00;104257.88;5043085;28;20029;-73
2023/02/06 10:48:03;;;;;;;21.23;3.58;;;;;;;5.33;99.77;104247.53;5032484;28;20110;-73
2023/02/06 10:50:38;;;;;;;16.23;2.55;;;;;;;5.36;99.37;104263.22;5024185;28;20057;-73
2023/02/06 10:53:12;;;;;;;16.30;3.20;;;;;;;5.39;98.98;104263.34;5021352;28;20053;-73
2023/02/06 10:55:46;;;;;;;20.20;2.80;;;;;;;5.41;98.81;104266.00;5038249;28;20063;-73
2023/02/06 10:58:34;;;;;;;29.35;3.72;;;;;;;5.40;96.63;104257.31;5036245;28;20110;-73
2023/02/06 11:01:00;;;;;;;26.70;3.85;;;;;;;5.43;96.67;104260.03;5036093;28;20086;-73
2023/02/06 11:03:29;;;;;;;24.27;4.35;;;;;;;5.45;96.73;104247.09;5032912;28;20341;-73
2023/02/06 11:05:55;;;;;;;23.70;3.05;;;;;;;5.46;96.61;104241.94;5039571;28;20053;-73
2023/02/06 11:08:39;;;;;;;12.80;1.98;;;;;;;5.46;96.75;104239.34;5046549;28;20418;-73
2023/02/06 11:11:26;;;;;;;14.95;2.35;;;;;;;5.48;96.73;104242.88;5048762;28;20052;-73
2023/02/06 11:14:10;;;;;;;24.73;3.47;;;;;;;5.50;96.86;104237.75;5039694;28;20044;-73
2023/02/06 11:16:36;;;;;;;21.20;2.97;;;;;;;5.49;96.68;104239.44;5037592;28;20399;-73
2023/02/06 11:19:26;;;;;;;19.42;4.05;;;;;;;5.51;95.99;104244.69;5041136;28;20037;-73
2023/02/06 11:22:03;;;;;;;19.95;3.67;;;;;;;5.51;95.73;104250.78;5046503;28;20095;-73
2023/02/06 11:24:29;;;;;;;19.55;3.10;;;;;;;5.53;95.28;104245.63;5051513;28;20272;-73
2023/02/06 11:26:58;;;;;;;23.88;2.85;;;;;;;5.55;94.23;104244.88;5039854;28;20043;-73
2023/02/06 11:29:23;;;;;;;;;;;;;;;5.59;94.50;104248.47;5038257;28;20226;-73
2023/02/06 11:31:58;;;;;;;30.00;3.37;;;;;;;5.62;94.81;104247.66;5046588;28;19931;-73
2023/02/06 11:34:49;;;;;;;31.00;3.33;;;;;;;5.62;94.63;104245.97;5039516;28;20218;-72
2023/02/06 11:37:34;;;;;;;25.00;3.10;;;;;;;5.67;93.51;104240.91;5034204;28;20395;-73
2023/02/06 11:40:23;;;;;;;16.33;2.72;;;;;;;5.69;92.37;104231.44;5043735;28;20386;-74
2023/02/06 11:43:10;;;;;;;26.92;3.28;;;;;;;5.72;91.70;104234.16;5039461;28;20049;-73